sensor_id;sensor_type;location;lat;lon;timestamp;P1;durP1;ratioP1;P2;durP2;ratioP2
19869;SDS011;10097;50.862;4.696;2024-01-16T00:01:20;11.40;;;3.63;;
19869;SDS011;10097;50.862;4.696;2024-01-16T00:03:46;14.63;;;4.23;;
19869;SDS011;10097;50.862;4.696;2024-01-16T00:06:12;17.37;;;3.87;;
19869;SDS011;10097;50.862;4.696;2024-01-16T00:08:37;16.30;;;3.40;;
19869;SDS011;10097;50.862;4.696;2024-01-16T00:11:03;13.90;;;3.37;;
19869;SDS011;10097;50.862;4.696;2024-01-16T00:13:29;10.37;;;3.57;;
19869;SDS011;10097;50.862;4.696;2024-01-16T00:15:54;17.00;;;3.37;;
19869;SDS011;10097;50.862;4.696;2024-01-16T00:18:21;10.27;;;3.10;;
19869;SDS011;10097;50.862;4.696;2024-01-16T00:20:47;9.33;;;2.80;;
19869;SDS011;10097;50.862;4.696;2024-01-16T00:23:13;11.80;;;3.30;;
19869;SDS011;10097;50.862;4.696;2024-01-16T00:25:39;14.47;;;2.80;;
19869;SDS011;10097;50.862;4.696;2024-01-16T00:28:05;12.77;;;2.90;;
19869;SDS011;10097;50.862;4.696;2024-01-16T00:30:31;16.53;;;3.00;;
19869;SDS011;10097;50.862;4.696;2024-01-16T00:32:56;15.57;;;3.10;;
19869;SDS011;10097;50.862;4.696;2024-01-16T00:35:22;13.80;;;2.97;;
19869;SDS011;10097;50.862;4.696;2024-01-16T00:37:48;14.30;;;3.33;;
19869;SDS011;10097;50.862;4.696;2024-01-16T00:40:14;14.90;;;3.57;;
19869;SDS011;10097;50.862;4.696;2024-01-16T00:42:39;15.27;;;3.33;;
19869;SDS011;10097;50.862;4.696;2024-01-16T00:45:05;13.87;;;3.10;;
19869;SDS011;10097;50.862;4.696;2024-01-16T00:47:45;19.07;;;4.17;;
19869;SDS011;10097;50.862;4.696;2024-01-16T00:50:11;11.57;;;3.20;;
19869;SDS011;10097;50.862;4.696;2024-01-16T00:52:37;13.03;;;3.40;;
19869;SDS011;10097;50.862;4.696;2024-01-16T00:55:03;15.60;;;3.63;;
19869;SDS011;10097;50.862;4.696;2024-01-16T00:57:29;15.70;;;3.50;;
19869;SDS011;10097;50.862;4.696;2024-01-16T00:59:55;13.47;;;3.40;;
19869;SDS011;10097;50.862;4.696;2024-01-16T01:02:21;15.47;;;3.77;;
19869;SDS011;10097;50.862;4.696;2024-01-16T01:04:46;18.67;;;3.67;;
19869;SDS011;10097;50.862;4.696;2024-01-16T01:07:16;15.73;;;3.37;;
19869;SDS011;10097;50.862;4.696;2024-01-16T01:09:41;12.73;;;3.27;;
19869;SDS011;10097;50.862;4.696;2024-01-16T01:12:07;19.70;;;3.33;;
19869;SDS011;10097;50.862;4.696;2024-01-16T01:14:33;12.80;;;2.90;;
19869;SDS011;10097;50.862;4.696;2024-01-16T01:16:59;14.30;;;3.53;;
19869;SDS011;10097;50.862;4.696;2024-01-16T01:19:24;15.30;;;3.67;;
19869;SDS011;10097;50.862;4.696;2024-01-16T01:21:50;15.40;;;3.43;;
19869;SDS011;10097;50.862;4.696;2024-01-16T01:24:16;9.83;;;3.07;;
19869;SDS011;10097;50.862;4.696;2024-01-16T01:26:44;13.97;;;3.00;;
19869;SDS011;10097;50.862;4.696;2024-01-16T01:29:10;10.47;;;3.17;;
19869;SDS011;10097;50.862;4.696;2024-01-16T01:31:36;19.20;;;3.03;;
19869;SDS011;10097;50.862;4.696;2024-01-16T01:34:02;12.43;;;2.83;;
19869;SDS011;10097;50.862;4.696;2024-01-16T01:36:27;18.53;;;3.20;;
19869;SDS011;10097;50.862;4.696;2024-01-16T01:38:53;13.50;;;3.33;;
19869;SDS011;10097;50.862;4.696;2024-01-16T01:41:19;16.43;;;3.17;;
19869;SDS011;10097;50.862;4.696;2024-01-16T01:43:44;12.50;;;2.87;;
19869;SDS011;10097;50.862;4.696;2024-01-16T01:46:12;9.20;;;2.83;;
19869;SDS011;10097;50.862;4.696;2024-01-16T01:48:41;15.80;;;3.50;;
19869;SDS011;10097;50.862;4.696;2024-01-16T01:51:08;12.53;;;2.70;;
19869;SDS011;10097;50.862;4.696;2024-01-16T01:53:34;19.13;;;3.50;;
19869;SDS011;10097;50.862;4.696;2024-01-16T01:56:07;12.40;;;3.47;;
19869;SDS011;10097;50.862;4.696;2024-01-16T01:58:35;16.03;;;3.40;;
19869;SDS011;10097;50.862;4.696;2024-01-16T02:01:03;12.73;;;3.33;;
19869;SDS011;10097;50.862;4.696;2024-01-16T02:03:30;12.87;;;3.40;;
19869;SDS011;10097;50.862;4.696;2024-01-16T02:06:00;15.40;;;3.17;;
19869;SDS011;10097;50.862;4.696;2024-01-16T02:08:27;12.93;;;3.33;;
19869;SDS011;10097;50.862;4.696;2024-01-16T02:10:52;14.00;;;3.80;;
19869;SDS011;10097;50.862;4.696;2024-01-16T02:13:18;10.10;;;3.17;;
19869;SDS011;10097;50.862;4.696;2024-01-16T02:15:48;14.00;;;3.50;;
19869;SDS011;10097;50.862;4.696;2024-01-16T02:18:14;11.00;;;3.60;;
19869;SDS011;10097;50.862;4.696;2024-01-16T02:20:41;11.03;;;3.83;;
19869;SDS011;10097;50.862;4.696;2024-01-16T02:23:07;18.60;;;3.90;;
19869;SDS011;10097;50.862;4.696;2024-01-16T02:25:33;17.60;;;3.37;;
19869;SDS011;10097;50.862;4.696;2024-01-16T02:28:00;13.20;;;3.63;;
19869;SDS011;10097;50.862;4.696;2024-01-16T02:30:28;10.13;;;3.73;;
19869;SDS011;10097;50.862;4.696;2024-01-16T02:32:53;11.13;;;3.47;;
19869;SDS011;10097;50.862;4.696;2024-01-16T02:35:19;15.90;;;3.30;;
19869;SDS011;10097;50.862;4.696;2024-01-16T02:37:45;13.27;;;3.43;;
19869;SDS011;10097;50.862;4.696;2024-01-16T02:40:10;15.13;;;2.90;;
19869;SDS011;10097;50.862;4.696;2024-01-16T02:42:36;9.60;;;2.67;;
19869;SDS011;10097;50.862;4.696;2024-01-16T02:45:03;10.37;;;2.67;;
19869;SDS011;10097;50.862;4.696;2024-01-16T02:47:29;13.00;;;2.73;;
19869;SDS011;10097;50.862;4.696;2024-01-16T02:49:55;8.70;;;3.00;;
19869;SDS011;10097;50.862;4.696;2024-01-16T02:52:22;15.93;;;3.37;;
19869;SDS011;10097;50.862;4.696;2024-01-16T02:54:47;15.17;;;3.43;;
19869;SDS011;10097;50.862;4.696;2024-01-16T02:57:13;11.07;;;3.17;;
19869;SDS011;10097;50.862;4.696;2024-01-16T02:59:39;10.80;;;3.20;;
19869;SDS011;10097;50.862;4.696;2024-01-16T03:02:04;13.83;;;3.37;;
19869;SDS011;10097;50.862;4.696;2024-01-16T03:04:30;13.93;;;3.40;;
19869;SDS011;10097;50.862;4.696;2024-01-16T03:06:55;15.13;;;3.53;;
19869;SDS011;10097;50.862;4.696;2024-01-16T03:09:21;12.80;;;3.30;;
19869;SDS011;10097;50.862;4.696;2024-01-16T03:11:47;12.80;;;2.97;;
19869;SDS011;10097;50.862;4.696;2024-01-16T03:14:13;12.30;;;2.80;;
19869;SDS011;10097;50.862;4.696;2024-01-16T03:16:39;14.50;;;2.43;;
19869;SDS011;10097;50.862;4.696;2024-01-16T03:19:05;12.93;;;3.37;;
19869;SDS011;10097;50.862;4.696;2024-01-16T03:21:31;12.67;;;3.37;;
19869;SDS011;10097;50.862;4.696;2024-01-16T03:23:57;13.20;;;2.63;;
19869;SDS011;10097;50.862;4.696;2024-01-16T03:26:23;15.13;;;2.83;;
19869;SDS011;10097;50.862;4.696;2024-01-16T03:28:48;12.77;;;3.23;;
19869;SDS011;10097;50.862;4.696;2024-01-16T03:31:14;18.73;;;3.90;;
19869;SDS011;10097;50.862;4.696;2024-01-16T03:33:40;12.07;;;2.93;;
19869;SDS011;10097;50.862;4.696;2024-01-16T03:36:07;11.70;;;3.50;;
19869;SDS011;10097;50.862;4.696;2024-01-16T03:38:34;14.30;;;3.47;;
19869;SDS011;10097;50.862;4.696;2024-01-16T03:41:01;11.77;;;3.53;;
19869;SDS011;10097;50.862;4.696;2024-01-16T03:43:28;18.37;;;3.37;;
19869;SDS011;10097;50.862;4.696;2024-01-16T03:45:56;13.80;;;3.70;;
19869;SDS011;10097;50.862;4.696;2024-01-16T03:48:22;12.30;;;3.63;;
19869;SDS011;10097;50.862;4.696;2024-01-16T03:50:48;15.23;;;3.77;;
19869;SDS011;10097;50.862;4.696;2024-01-16T03:53:14;14.30;;;3.30;;
19869;SDS011;10097;50.862;4.696;2024-01-16T03:55:39;14.40;;;3.67;;
19869;SDS011;10097;50.862;4.696;2024-01-16T03:58:05;14.33;;;3.43;;
19869;SDS011;10097;50.862;4.696;2024-01-16T04:00:31;14.30;;;3.80;;
19869;SDS011;10097;50.862;4.696;2024-01-16T04:02:57;14.73;;;3.77;;
19869;SDS011;10097;50.862;4.696;2024-01-16T04:05:22;13.57;;;3.47;;
19869;SDS011;10097;50.862;4.696;2024-01-16T04:07:48;12.57;;;3.57;;
19869;SDS011;10097;50.862;4.696;2024-01-16T04:10:14;20.03;;;3.50;;
19869;SDS011;10097;50.862;4.696;2024-01-16T04:12:39;15.53;;;3.47;;
19869;SDS011;10097;50.862;4.696;2024-01-16T04:15:05;16.63;;;3.40;;
19869;SDS011;10097;50.862;4.696;2024-01-16T04:17:31;11.33;;;3.20;;
19869;SDS011;10097;50.862;4.696;2024-01-16T04:19:57;10.77;;;3.17;;
19869;SDS011;10097;50.862;4.696;2024-01-16T04:22:23;10.03;;;3.30;;
19869;SDS011;10097;50.862;4.696;2024-01-16T04:24:48;9.70;;;3.07;;
19869;SDS011;10097;50.862;4.696;2024-01-16T04:27:14;13.97;;;3.20;;
19869;SDS011;10097;50.862;4.696;2024-01-16T04:29:40;17.57;;;3.73;;
19869;SDS011;10097;50.862;4.696;2024-01-16T04:32:05;14.73;;;3.07;;
19869;SDS011;10097;50.862;4.696;2024-01-16T04:34:31;16.77;;;3.47;;
19869;SDS011;10097;50.862;4.696;2024-01-16T04:36:57;11.70;;;3.47;;
19869;SDS011;10097;50.862;4.696;2024-01-16T04:39:22;11.67;;;3.63;;
19869;SDS011;10097;50.862;4.696;2024-01-16T04:41:49;15.23;;;4.13;;
19869;SDS011;10097;50.862;4.696;2024-01-16T04:44:14;15.63;;;3.97;;
19869;SDS011;10097;50.862;4.696;2024-01-16T04:46:40;15.47;;;4.00;;
19869;SDS011;10097;50.862;4.696;2024-01-16T04:49:06;13.90;;;3.60;;
19869;SDS011;10097;50.862;4.696;2024-01-16T04:51:31;16.73;;;4.13;;
19869;SDS011;10097;50.862;4.696;2024-01-16T04:53:57;19.07;;;8.33;;
19869;SDS011;10097;50.862;4.696;2024-01-16T04:56:23;13.00;;;3.73;;
19869;SDS011;10097;50.862;4.696;2024-01-16T04:58:48;13.73;;;3.93;;
19869;SDS011;10097;50.862;4.696;2024-01-16T05:01:14;15.03;;;3.70;;
19869;SDS011;10097;50.862;4.696;2024-01-16T05:03:40;15.80;;;4.20;;
19869;SDS011;10097;50.862;4.696;2024-01-16T05:06:11;18.03;;;4.27;;
19869;SDS011;10097;50.862;4.696;2024-01-16T05:08:38;18.93;;;4.40;;
19869;SDS011;10097;50.862;4.696;2024-01-16T05:11:04;17.43;;;4.20;;
19869;SDS011;10097;50.862;4.696;2024-01-16T05:13:30;18.10;;;4.67;;
19869;SDS011;10097;50.862;4.696;2024-01-16T05:15:55;17.63;;;4.30;;
19869;SDS011;10097;50.862;4.696;2024-01-16T05:18:21;18.23;;;3.70;;
19869;SDS011;10097;50.862;4.696;2024-01-16T05:20:46;16.63;;;4.57;;
19869;SDS011;10097;50.862;4.696;2024-01-16T05:23:12;15.07;;;4.33;;
19869;SDS011;10097;50.862;4.696;2024-01-16T05:25:38;16.40;;;4.17;;
19869;SDS011;10097;50.862;4.696;2024-01-16T05:28:04;17.40;;;4.57;;
19869;SDS011;10097;50.862;4.696;2024-01-16T05:30:29;16.20;;;4.47;;
19869;SDS011;10097;50.862;4.696;2024-01-16T05:32:55;14.67;;;4.73;;
19869;SDS011;10097;50.862;4.696;2024-01-16T05:35:25;14.20;;;4.57;;
19869;SDS011;10097;50.862;4.696;2024-01-16T05:37:55;18.37;;;4.77;;
19869;SDS011;10097;50.862;4.696;2024-01-16T05:40:21;19.00;;;4.90;;
19869;SDS011;10097;50.862;4.696;2024-01-16T05:42:48;16.87;;;4.57;;
19869;SDS011;10097;50.862;4.696;2024-01-16T05:45:14;19.20;;;4.67;;
19869;SDS011;10097;50.862;4.696;2024-01-16T05:47:40;14.23;;;4.47;;
19869;SDS011;10097;50.862;4.696;2024-01-16T05:50:06;18.37;;;5.17;;
19869;SDS011;10097;50.862;4.696;2024-01-16T05:52:32;16.63;;;4.70;;
19869;SDS011;10097;50.862;4.696;2024-01-16T05:54:58;16.17;;;4.67;;
19869;SDS011;10097;50.862;4.696;2024-01-16T05:57:25;18.90;;;4.47;;
19869;SDS011;10097;50.862;4.696;2024-01-16T05:59:51;18.70;;;5.40;;
19869;SDS011;10097;50.862;4.696;2024-01-16T06:02:16;16.03;;;5.83;;
19869;SDS011;10097;50.862;4.696;2024-01-16T06:04:42;16.17;;;4.40;;
19869;SDS011;10097;50.862;4.696;2024-01-16T06:07:08;14.63;;;4.73;;
19869;SDS011;10097;50.862;4.696;2024-01-16T06:09:37;15.73;;;4.43;;
19869;SDS011;10097;50.862;4.696;2024-01-16T06:12:05;14.90;;;4.77;;
19869;SDS011;10097;50.862;4.696;2024-01-16T06:14:32;15.90;;;4.70;;
19869;SDS011;10097;50.862;4.696;2024-01-16T06:16:58;17.27;;;4.50;;
19869;SDS011;10097;50.862;4.696;2024-01-16T06:19:23;17.97;;;4.80;;
19869;SDS011;10097;50.862;4.696;2024-01-16T06:21:49;19.33;;;5.20;;
19869;SDS011;10097;50.862;4.696;2024-01-16T06:24:15;15.07;;;4.63;;
19869;SDS011;10097;50.862;4.696;2024-01-16T06:26:40;21.80;;;5.00;;
19869;SDS011;10097;50.862;4.696;2024-01-16T06:29:07;15.17;;;5.60;;
19869;SDS011;10097;50.862;4.696;2024-01-16T06:31:33;15.13;;;4.83;;
19869;SDS011;10097;50.862;4.696;2024-01-16T06:33:59;17.97;;;5.33;;
19869;SDS011;10097;50.862;4.696;2024-01-16T06:36:24;17.33;;;5.00;;
19869;SDS011;10097;50.862;4.696;2024-01-16T06:38:50;15.80;;;4.50;;
19869;SDS011;10097;50.862;4.696;2024-01-16T06:41:15;15.03;;;4.70;;
19869;SDS011;10097;50.862;4.696;2024-01-16T06:43:41;25.63;;;6.23;;
19869;SDS011;10097;50.862;4.696;2024-01-16T06:46:07;18.63;;;4.40;;
19869;SDS011;10097;50.862;4.696;2024-01-16T06:48:35;14.73;;;4.60;;
19869;SDS011;10097;50.862;4.696;2024-01-16T06:51:01;16.30;;;4.60;;
19869;SDS011;10097;50.862;4.696;2024-01-16T06:53:27;16.57;;;4.77;;
19869;SDS011;10097;50.862;4.696;2024-01-16T06:55:53;17.30;;;4.90;;
19869;SDS011;10097;50.862;4.696;2024-01-16T06:58:19;17.43;;;5.63;;
19869;SDS011;10097;50.862;4.696;2024-01-16T07:00:44;16.97;;;4.97;;
19869;SDS011;10097;50.862;4.696;2024-01-16T07:03:11;14.63;;;4.93;;
19869;SDS011;10097;50.862;4.696;2024-01-16T07:05:38;11.63;;;4.47;;
19869;SDS011;10097;50.862;4.696;2024-01-16T07:08:05;15.20;;;4.23;;
19869;SDS011;10097;50.862;4.696;2024-01-16T07:10:31;11.73;;;4.20;;
19869;SDS011;10097;50.862;4.696;2024-01-16T07:12:57;21.20;;;5.17;;
19869;SDS011;10097;50.862;4.696;2024-01-16T07:15:23;19.50;;;4.93;;
19869;SDS011;10097;50.862;4.696;2024-01-16T07:17:48;17.97;;;5.30;;
19869;SDS011;10097;50.862;4.696;2024-01-16T07:20:14;15.70;;;4.00;;
19869;SDS011;10097;50.862;4.696;2024-01-16T07:22:40;16.43;;;4.73;;
19869;SDS011;10097;50.862;4.696;2024-01-16T07:25:06;15.63;;;4.10;;
19869;SDS011;10097;50.862;4.696;2024-01-16T07:27:32;17.40;;;4.63;;
19869;SDS011;10097;50.862;4.696;2024-01-16T07:29:58;14.97;;;4.00;;
19869;SDS011;10097;50.862;4.696;2024-01-16T07:32:24;20.93;;;4.63;;
19869;SDS011;10097;50.862;4.696;2024-01-16T07:34:49;16.93;;;4.83;;
19869;SDS011;10097;50.862;4.696;2024-01-16T07:37:16;13.27;;;4.07;;
19869;SDS011;10097;50.862;4.696;2024-01-16T07:39:42;18.27;;;3.87;;
19869;SDS011;10097;50.862;4.696;2024-01-16T07:42:08;17.00;;;4.00;;
19869;SDS011;10097;50.862;4.696;2024-01-16T07:44:34;16.53;;;4.60;;
19869;SDS011;10097;50.862;4.696;2024-01-16T07:47:00;12.90;;;4.00;;
19869;SDS011;10097;50.862;4.696;2024-01-16T07:49:25;16.43;;;4.70;;
19869;SDS011;10097;50.862;4.696;2024-01-16T07:51:51;12.90;;;4.37;;
19869;SDS011;10097;50.862;4.696;2024-01-16T07:54:17;16.93;;;4.53;;
19869;SDS011;10097;50.862;4.696;2024-01-16T07:56:42;12.77;;;4.47;;
19869;SDS011;10097;50.862;4.696;2024-01-16T07:59:08;13.80;;;4.00;;
19869;SDS011;10097;50.862;4.696;2024-01-16T08:01:34;13.17;;;4.23;;
19869;SDS011;10097;50.862;4.696;2024-01-16T08:03:59;18.00;;;4.60;;
19869;SDS011;10097;50.862;4.696;2024-01-16T08:06:25;15.47;;;4.47;;
19869;SDS011;10097;50.862;4.696;2024-01-16T08:08:51;18.00;;;4.50;;
19869;SDS011;10097;50.862;4.696;2024-01-16T08:11:18;19.70;;;4.73;;
19869;SDS011;10097;50.862;4.696;2024-01-16T08:13:43;13.33;;;4.53;;
19869;SDS011;10097;50.862;4.696;2024-01-16T08:16:09;9.97;;;3.67;;
19869;SDS011;10097;50.862;4.696;2024-01-16T08:18:35;16.73;;;4.20;;
19869;SDS011;10097;50.862;4.696;2024-01-16T08:21:01;11.90;;;4.33;;
19869;SDS011;10097;50.862;4.696;2024-01-16T08:23:27;15.07;;;4.23;;
19869;SDS011;10097;50.862;4.696;2024-01-16T08:25:53;13.27;;;4.23;;
19869;SDS011;10097;50.862;4.696;2024-01-16T08:28:18;13.67;;;4.40;;
19869;SDS011;10097;50.862;4.696;2024-01-16T08:30:44;14.83;;;4.63;;
19869;SDS011;10097;50.862;4.696;2024-01-16T08:33:11;15.13;;;4.83;;
19869;SDS011;10097;50.862;4.696;2024-01-16T08:35:37;12.20;;;4.33;;
19869;SDS011;10097;50.862;4.696;2024-01-16T08:38:03;15.43;;;4.47;;
19869;SDS011;10097;50.862;4.696;2024-01-16T08:40:29;14.47;;;4.90;;
19869;SDS011;10097;50.862;4.696;2024-01-16T08:42:55;12.90;;;4.90;;
19869;SDS011;10097;50.862;4.696;2024-01-16T08:45:21;16.13;;;4.43;;
19869;SDS011;10097;50.862;4.696;2024-01-16T08:47:47;15.43;;;4.47;;
19869;SDS011;10097;50.862;4.696;2024-01-16T08:50:14;12.37;;;4.23;;
19869;SDS011;10097;50.862;4.696;2024-01-16T08:52:40;12.23;;;4.53;;
19869;SDS011;10097;50.862;4.696;2024-01-16T08:55:07;15.37;;;4.27;;
19869;SDS011;10097;50.862;4.696;2024-01-16T08:57:34;18.57;;;4.77;;
19869;SDS011;10097;50.862;4.696;2024-01-16T09:00:00;20.67;;;4.73;;
19869;SDS011;10097;50.862;4.696;2024-01-16T09:02:25;13.63;;;4.13;;
19869;SDS011;10097;50.862;4.696;2024-01-16T09:04:54;13.93;;;4.30;;
19869;SDS011;10097;50.862;4.696;2024-01-16T09:07:20;14.93;;;4.47;;
19869;SDS011;10097;50.862;4.696;2024-01-16T09:09:46;15.70;;;4.83;;
19869;SDS011;10097;50.862;4.696;2024-01-16T09:12:11;12.83;;;4.40;;
19869;SDS011;10097;50.862;4.696;2024-01-16T09:14:37;11.27;;;4.00;;
19869;SDS011;10097;50.862;4.696;2024-01-16T09:17:03;15.03;;;4.30;;
19869;SDS011;10097;50.862;4.696;2024-01-16T09:19:28;16.00;;;4.40;;
19869;SDS011;10097;50.862;4.696;2024-01-16T09:21:54;15.60;;;4.43;;
19869;SDS011;10097;50.862;4.696;2024-01-16T09:24:20;10.23;;;3.57;;
19869;SDS011;10097;50.862;4.696;2024-01-16T09:26:46;13.10;;;3.87;;
19869;SDS011;10097;50.862;4.696;2024-01-16T09:29:12;11.00;;;3.57;;
19869;SDS011;10097;50.862;4.696;2024-01-16T09:31:39;23.70;;;4.37;;
19869;SDS011;10097;50.862;4.696;2024-01-16T09:34:05;12.30;;;3.97;;
19869;SDS011;10097;50.862;4.696;2024-01-16T09:36:31;9.67;;;3.23;;
19869;SDS011;10097;50.862;4.696;2024-01-16T09:39:00;12.33;;;3.73;;
19869;SDS011;10097;50.862;4.696;2024-01-16T09:41:27;8.73;;;3.33;;
19869;SDS011;10097;50.862;4.696;2024-01-16T09:43:52;12.13;;;4.13;;
19869;SDS011;10097;50.862;4.696;2024-01-16T09:46:19;14.63;;;3.80;;
19869;SDS011;10097;50.862;4.696;2024-01-16T09:48:47;15.23;;;4.00;;
19869;SDS011;10097;50.862;4.696;2024-01-16T09:51:15;11.87;;;3.57;;
19869;SDS011;10097;50.862;4.696;2024-01-16T09:53:42;12.13;;;3.47;;
19869;SDS011;10097;50.862;4.696;2024-01-16T09:56:09;12.83;;;3.97;;
19869;SDS011;10097;50.862;4.696;2024-01-16T09:58:43;17.57;;;3.67;;
19869;SDS011;10097;50.862;4.696;2024-01-16T10:01:10;13.17;;;3.63;;
19869;SDS011;10097;50.862;4.696;2024-01-16T10:03:37;11.50;;;3.47;;
19869;SDS011;10097;50.862;4.696;2024-01-16T10:06:06;9.77;;;3.70;;
19869;SDS011;10097;50.862;4.696;2024-01-16T10:08:32;12.10;;;3.73;;
19869;SDS011;10097;50.862;4.696;2024-01-16T10:10:58;13.67;;;4.13;;
19869;SDS011;10097;50.862;4.696;2024-01-16T10:13:25;12.93;;;4.33;;
19869;SDS011;10097;50.862;4.696;2024-01-16T10:15:51;12.03;;;3.47;;
19869;SDS011;10097;50.862;4.696;2024-01-16T10:18:23;14.47;;;4.07;;
19869;SDS011;10097;50.862;4.696;2024-01-16T10:20:52;11.07;;;3.80;;
19869;SDS011;10097;50.862;4.696;2024-01-16T10:23:28;17.27;;;4.37;;
19869;SDS011;10097;50.862;4.696;2024-01-16T10:28:50;13.77;;;3.90;;
19869;SDS011;10097;50.862;4.696;2024-01-16T10:31:16;13.23;;;3.93;;
19869;SDS011;10097;50.862;4.696;2024-01-16T10:33:42;12.17;;;4.27;;
19869;SDS011;10097;50.862;4.696;2024-01-16T10:38:45;14.00;;;4.23;;
19869;SDS011;10097;50.862;4.696;2024-01-16T10:43:38;10.70;;;3.70;;
19869;SDS011;10097;50.862;4.696;2024-01-16T10:46:11;11.07;;;3.63;;
19869;SDS011;10097;50.862;4.696;2024-01-16T10:48:38;15.67;;;4.03;;
19869;SDS011;10097;50.862;4.696;2024-01-16T10:51:06;11.13;;;3.73;;
19869;SDS011;10097;50.862;4.696;2024-01-16T10:53:33;14.47;;;3.93;;
19869;SDS011;10097;50.862;4.696;2024-01-16T10:56:00;10.03;;;2.83;;
19869;SDS011;10097;50.862;4.696;2024-01-16T10:58:27;13.10;;;3.70;;
19869;SDS011;10097;50.862;4.696;2024-01-16T11:00:57;14.83;;;3.47;;
19869;SDS011;10097;50.862;4.696;2024-01-16T11:06:14;10.53;;;3.50;;
19869;SDS011;10097;50.862;4.696;2024-01-16T11:08:46;13.10;;;3.20;;
19869;SDS011;10097;50.862;4.696;2024-01-16T11:11:16;19.90;;;3.60;;
19869;SDS011;10097;50.862;4.696;2024-01-16T11:13:42;10.37;;;3.47;;
19869;SDS011;10097;50.862;4.696;2024-01-16T11:16:12;11.03;;;3.20;;
19869;SDS011;10097;50.862;4.696;2024-01-16T11:18:38;13.20;;;3.17;;
19869;SDS011;10097;50.862;4.696;2024-01-16T11:21:06;7.67;;;2.83;;
19869;SDS011;10097;50.862;4.696;2024-01-16T11:23:34;11.07;;;3.10;;
19869;SDS011;10097;50.862;4.696;2024-01-16T11:31:52;11.17;;;2.83;;
19869;SDS011;10097;50.862;4.696;2024-01-16T11:37:13;10.50;;;2.40;;
19869;SDS011;10097;50.862;4.696;2024-01-16T11:39:39;9.50;;;2.60;;
19869;SDS011;10097;50.862;4.696;2024-01-16T11:42:07;9.67;;;2.40;;
19869;SDS011;10097;50.862;4.696;2024-01-16T11:44:39;13.47;;;3.00;;
19869;SDS011;10097;50.862;4.696;2024-01-16T11:47:06;18.27;;;3.43;;
19869;SDS011;10097;50.862;4.696;2024-01-16T11:49:33;11.23;;;2.93;;
19869;SDS011;10097;50.862;4.696;2024-01-16T11:52:00;7.80;;;2.27;;
19869;SDS011;10097;50.862;4.696;2024-01-16T11:54:26;7.70;;;2.47;;
19869;SDS011;10097;50.862;4.696;2024-01-16T11:57:00;7.10;;;2.13;;
19869;SDS011;10097;50.862;4.696;2024-01-16T12:02:37;10.67;;;2.93;;
19869;SDS011;10097;50.862;4.696;2024-01-16T12:05:11;6.33;;;2.30;;
19869;SDS011;10097;50.862;4.696;2024-01-16T12:07:47;9.67;;;2.97;;
19869;SDS011;10097;50.862;4.696;2024-01-16T12:10:15;9.77;;;2.10;;
19869;SDS011;10097;50.862;4.696;2024-01-16T12:12:41;11.27;;;2.33;;
19869;SDS011;10097;50.862;4.696;2024-01-16T12:15:12;7.90;;;2.30;;
19869;SDS011;10097;50.862;4.696;2024-01-16T12:20:22;11.27;;;2.47;;
19869;SDS011;10097;50.862;4.696;2024-01-16T12:22:54;11.97;;;2.60;;
19869;SDS011;10097;50.862;4.696;2024-01-16T12:25:31;13.97;;;2.70;;
19869;SDS011;10097;50.862;4.696;2024-01-16T12:27:59;10.13;;;2.47;;
19869;SDS011;10097;50.862;4.696;2024-01-16T12:30:32;8.33;;;2.60;;
19869;SDS011;10097;50.862;4.696;2024-01-16T12:33:08;12.63;;;2.87;;
19869;SDS011;10097;50.862;4.696;2024-01-16T12:35:36;11.50;;;3.03;;
19869;SDS011;10097;50.862;4.696;2024-01-16T12:38:05;10.50;;;2.33;;
19869;SDS011;10097;50.862;4.696;2024-01-16T12:40:35;13.23;;;2.80;;
19869;SDS011;10097;50.862;4.696;2024-01-16T12:43:05;16.40;;;2.87;;
19869;SDS011;10097;50.862;4.696;2024-01-16T12:45:32;14.50;;;2.30;;
19869;SDS011;10097;50.862;4.696;2024-01-16T12:47:59;9.13;;;2.37;;
19869;SDS011;10097;50.862;4.696;2024-01-16T12:50:26;11.97;;;3.07;;
19869;SDS011;10097;50.862;4.696;2024-01-16T12:53:07;9.83;;;2.60;;
19869;SDS011;10097;50.862;4.696;2024-01-16T12:55:34;8.23;;;3.27;;
19869;SDS011;10097;50.862;4.696;2024-01-16T13:00:51;10.00;;;2.97;;
19869;SDS011;10097;50.862;4.696;2024-01-16T13:03:20;11.23;;;2.83;;
19869;SDS011;10097;50.862;4.696;2024-01-16T13:05:57;10.83;;;3.50;;
19869;SDS011;10097;50.862;4.696;2024-01-16T13:08:25;10.73;;;2.57;;
19869;SDS011;10097;50.862;4.696;2024-01-16T13:13:29;9.67;;;2.77;;
19869;SDS011;10097;50.862;4.696;2024-01-16T13:15:55;8.47;;;2.90;;
19869;SDS011;10097;50.862;4.696;2024-01-16T13:18:26;9.83;;;2.70;;
19869;SDS011;10097;50.862;4.696;2024-01-16T13:20:54;10.80;;;3.13;;
19869;SDS011;10097;50.862;4.696;2024-01-16T13:23:21;7.87;;;2.17;;
19869;SDS011;10097;50.862;4.696;2024-01-16T13:25:48;16.43;;;3.23;;
19869;SDS011;10097;50.862;4.696;2024-01-16T13:28:15;11.37;;;2.87;;
19869;SDS011;10097;50.862;4.696;2024-01-16T13:30:42;16.37;;;2.93;;
19869;SDS011;10097;50.862;4.696;2024-01-16T13:33:08;9.97;;;2.27;;
19869;SDS011;10097;50.862;4.696;2024-01-16T13:35:35;6.83;;;2.00;;
19869;SDS011;10097;50.862;4.696;2024-01-16T13:38:03;13.80;;;2.73;;
19869;SDS011;10097;50.862;4.696;2024-01-16T13:40:29;11.77;;;2.40;;
19869;SDS011;10097;50.862;4.696;2024-01-16T13:42:55;12.97;;;2.47;;
19869;SDS011;10097;50.862;4.696;2024-01-16T13:45:21;12.27;;;2.53;;
19869;SDS011;10097;50.862;4.696;2024-01-16T13:47:48;8.00;;;2.20;;
19869;SDS011;10097;50.862;4.696;2024-01-16T13:50:14;10.67;;;2.70;;
19869;SDS011;10097;50.862;4.696;2024-01-16T13:52:40;8.90;;;2.70;;
19869;SDS011;10097;50.862;4.696;2024-01-16T13:55:09;10.33;;;2.50;;
19869;SDS011;10097;50.862;4.696;2024-01-16T13:57:36;11.47;;;2.60;;
19869;SDS011;10097;50.862;4.696;2024-01-16T14:00:02;7.33;;;2.40;;
19869;SDS011;10097;50.862;4.696;2024-01-16T14:02:29;8.03;;;2.53;;
19869;SDS011;10097;50.862;4.696;2024-01-16T14:04:55;9.63;;;2.47;;
19869;SDS011;10097;50.862;4.696;2024-01-16T14:07:21;11.67;;;2.70;;
19869;SDS011;10097;50.862;4.696;2024-01-16T14:09:47;9.13;;;2.33;;
19869;SDS011;10097;50.862;4.696;2024-01-16T14:12:13;11.50;;;3.33;;
19869;SDS011;10097;50.862;4.696;2024-01-16T14:14:39;9.57;;;2.53;;
19869;SDS011;10097;50.862;4.696;2024-01-16T14:17:06;12.77;;;2.33;;
19869;SDS011;10097;50.862;4.696;2024-01-16T14:19:34;12.10;;;2.10;;
19869;SDS011;10097;50.862;4.696;2024-01-16T14:22:00;8.50;;;2.63;;
19869;SDS011;10097;50.862;4.696;2024-01-16T14:24:26;8.80;;;2.43;;
19869;SDS011;10097;50.862;4.696;2024-01-16T14:26:51;11.70;;;3.53;;
19869;SDS011;10097;50.862;4.696;2024-01-16T14:29:17;10.73;;;2.80;;
19869;SDS011;10097;50.862;4.696;2024-01-16T14:31:43;9.60;;;2.60;;
19869;SDS011;10097;50.862;4.696;2024-01-16T14:34:13;9.47;;;2.30;;
19869;SDS011;10097;50.862;4.696;2024-01-16T14:36:40;10.77;;;2.30;;
19869;SDS011;10097;50.862;4.696;2024-01-16T14:39:06;8.83;;;1.93;;
19869;SDS011;10097;50.862;4.696;2024-01-16T14:41:34;8.07;;;2.50;;
19869;SDS011;10097;50.862;4.696;2024-01-16T14:44:00;9.63;;;3.37;;
19869;SDS011;10097;50.862;4.696;2024-01-16T14:46:26;11.60;;;2.53;;
19869;SDS011;10097;50.862;4.696;2024-01-16T14:48:52;11.30;;;2.30;;
19869;SDS011;10097;50.862;4.696;2024-01-16T14:51:17;8.70;;;2.40;;
19869;SDS011;10097;50.862;4.696;2024-01-16T14:53:43;8.87;;;2.67;;
19869;SDS011;10097;50.862;4.696;2024-01-16T14:56:09;8.90;;;3.07;;
19869;SDS011;10097;50.862;4.696;2024-01-16T14:58:38;18.33;;;3.60;;
19869;SDS011;10097;50.862;4.696;2024-01-16T15:01:03;14.97;;;2.60;;
19869;SDS011;10097;50.862;4.696;2024-01-16T15:03:30;10.43;;;2.40;;